createdAt,value
2019-01-13T16:42:48.048Z,101328.87
2019-01-13T16:45:25.054Z,101325.72
2019-01-13T16:50:42.624Z,101321.50
2019-01-13T16:53:15.483Z,101314.31
2019-01-13T16:55:54.117Z,101314.12
2019-01-13T16:58:28.712Z,101319.28
2019-01-13T17:01:03.645Z,101314.89
2019-01-13T17:03:40.562Z,101309.35
2019-01-13T17:06:17.595Z,101305.73
2019-01-13T17:08:57.753Z,101299.55
2019-01-13T17:11:37.322Z,101298.14
2019-01-13T17:14:13.276Z,101293.11
2019-01-13T17:16:47.526Z,101294.69
2019-01-13T17:21:54.486Z,101290.09
2019-01-13T17:24:24.524Z,101286.47
2019-01-13T17:26:54.096Z,101288.52
2019-01-13T17:40:26.204Z,101275.34
2019-01-13T17:48:46.286Z,101271.31
2019-01-13T17:51:25.794Z,101271.61
2019-01-13T18:10:31.758Z,101234.42
2019-01-13T18:13:01.600Z,101229.09
2019-01-13T18:15:31.556Z,101222.83
2019-01-13T18:18:01.601Z,101228.89
2019-01-13T18:20:31.934Z,101242.27
2019-01-13T18:23:02.234Z,101243.17
2019-01-13T18:25:32.807Z,101237.87
2019-01-13T18:28:02.877Z,101228.05
2019-01-13T18:30:33.020Z,101224.22
2019-01-13T18:33:02.687Z,101222.14
2019-01-13T18:35:32.260Z,101226.64
2019-01-13T18:40:44.206Z,101221.81
2019-01-13T18:43:21.111Z,101220.50
2019-01-13T18:53:51.114Z,101209.38
2019-01-13T18:56:25.027Z,101206.77
2019-01-13T18:58:56.693Z,101206.56
2019-01-13T19:01:26.767Z,101213.50
2019-01-13T19:03:56.772Z,101208.07
2019-01-13T19:06:26.833Z,101202.37
2019-01-13T19:09:00.470Z,101198.17
2019-01-13T19:14:07.292Z,101185.53
2019-01-13T19:16:37.807Z,101185.35
2019-01-13T19:19:08.220Z,101186.34
2019-01-13T19:21:38.161Z,101192.24
2019-01-13T19:24:08.298Z,101193.08
2019-01-13T19:26:38.641Z,101190.63
2019-01-13T19:29:08.828Z,101191.29
2019-01-13T19:31:39.543Z,101183.92
2019-01-13T19:34:09.917Z,101178.86
2019-01-13T19:36:40.137Z,101177.18
2019-01-13T19:39:10.092Z,101178.55
2019-01-13T19:41:40.540Z,101180.47
2019-01-13T19:44:10.916Z,101173.77
2019-01-13T19:46:40.952Z,101173.83
2019-01-13T19:49:11.253Z,101175.15
2019-01-13T19:51:41.267Z,101169.86
2019-01-13T19:54:11.228Z,101173.84
2019-01-13T19:56:41.703Z,101165.94
2019-01-13T19:59:11.582Z,101167.72
2019-01-13T20:01:41.280Z,101170.86
2019-01-13T20:04:11.143Z,101170.95
2019-01-13T20:06:41.455Z,101167.14
2019-01-13T20:09:11.443Z,101171.58
2019-01-13T20:11:41.567Z,101173.66
2019-01-13T20:14:11.177Z,101172.83
2019-01-13T20:16:41.337Z,101174.59
2019-01-13T20:19:11.731Z,101171.05
2019-01-13T20:21:42.063Z,101167.60
2019-01-13T20:24:12.198Z,101163.84
2019-01-13T20:26:42.402Z,101163.94
2019-01-13T20:29:12.189Z,101159.20
2019-01-13T20:31:42.390Z,101156.22
2019-01-13T20:34:12.194Z,101154.91
2019-01-13T20:36:42.315Z,101152.93
2019-01-13T20:39:12.324Z,101148.00
2019-01-13T20:41:41.798Z,101148.16
2019-01-13T20:44:11.347Z,101142.29
2019-01-13T20:46:40.899Z,101149.81
2019-01-13T20:49:11.182Z,101154.88
2019-01-13T20:51:41.112Z,101146.64
2019-01-13T20:54:10.395Z,101142.36
2019-01-13T20:56:40.427Z,101143.02
2019-01-13T20:59:10.423Z,101140.19
2019-01-13T21:01:40.636Z,101134.58
2019-01-13T21:04:10.561Z,101134.20
2019-01-13T21:06:40.573Z,101141.26
2019-01-13T21:09:10.094Z,101141.72
2019-01-13T21:11:39.879Z,101147.04
2019-01-13T21:14:09.909Z,101135.08
2019-01-13T21:16:39.721Z,101136.38
2019-01-13T21:19:09.746Z,101132.66
2019-01-13T21:21:39.241Z,101131.91
2019-01-13T21:24:09.071Z,101144.96
2019-01-13T21:26:38.862Z,101141.98
2019-01-13T21:29:08.387Z,101142.72
2019-01-13T21:31:38.194Z,101143.66
2019-01-13T21:34:07.689Z,101154.94
2019-01-13T21:36:37.283Z,101154.56
2019-01-13T21:39:07.319Z,101154.34
2019-01-13T21:41:37.273Z,101149.69
2019-01-13T21:44:07.437Z,101148.53
2019-01-13T21:46:36.972Z,101139.22
2019-01-13T21:49:06.986Z,101144.59
2019-01-13T21:51:36.663Z,101145.52
2019-01-13T21:54:10.863Z,101148.13
2019-01-13T21:56:37.235Z,101149.06
2019-01-13T21:59:07.140Z,101158.77
2019-01-13T22:01:36.630Z,101162.42
2019-01-13T22:04:06.707Z,101164.64
2019-01-13T22:06:36.881Z,101161.84
2019-01-13T22:09:07.192Z,101168.13
2019-01-13T22:11:37.110Z,101164.40
2019-01-13T22:14:06.800Z,101173.75
2019-01-13T22:16:36.838Z,101169.28
2019-01-13T22:19:06.761Z,101167.95
2019-01-13T22:21:36.624Z,101163.57
2019-01-13T22:24:06.800Z,101162.27
2019-01-13T22:26:36.546Z,101162.73
2019-01-13T22:29:06.161Z,101163.66
2019-01-13T22:31:35.818Z,101168.70
2019-01-13T22:34:05.851Z,101172.05
2019-01-13T22:36:35.523Z,101181.93
2019-01-13T22:39:04.947Z,101174.32
2019-01-13T22:41:34.446Z,101175.91
2019-01-13T22:44:03.935Z,101169.10
2019-01-13T22:46:33.430Z,101172.08
2019-01-13T22:49:02.960Z,101179.17
2019-01-13T22:51:32.466Z,101180.75
2019-01-13T22:54:02.281Z,101179.91
2019-01-13T22:56:31.946Z,101166.40
2019-01-13T22:59:01.554Z,101166.02
2019-01-13T23:01:31.280Z,101160.90
2019-01-13T23:04:00.596Z,101163.98
2019-01-13T23:06:30.423Z,101166.00
2019-01-13T23:09:00.788Z,101167.27
2019-01-13T23:11:30.632Z,101170.53
2019-01-13T23:14:00.684Z,101173.38
2019-01-13T23:16:30.230Z,101170.02
2019-01-13T23:19:00.038Z,101172.31
2019-01-13T23:21:30.238Z,101173.86
2019-01-13T23:24:00.228Z,101182.63
2019-01-13T23:26:30.136Z,101181.97
2019-01-13T23:29:00.563Z,101183.36
2019-01-13T23:31:30.239Z,101183.51
2019-01-13T23:33:59.784Z,101173.96
2019-01-13T23:36:30.096Z,101168.89
2019-01-13T23:39:00.525Z,101166.38
2019-01-13T23:41:30.641Z,101157.01
2019-01-13T23:44:00.665Z,101165.30
2019-01-13T23:46:30.565Z,101153.36
2019-01-13T23:49:00.896Z,101153.46
2019-01-13T23:51:30.598Z,101155.08
2019-01-13T23:54:00.117Z,101153.73
2019-01-13T23:56:29.507Z,101158.95
2019-01-13T23:58:59.295Z,101162.64
